createdAt,value
2022-08-26T00:01:46.624Z,50.43
2022-08-26T00:04:13.580Z,50.47
2022-08-26T00:06:42.358Z,50.66
2022-08-26T00:09:13.060Z,50.76
2022-08-26T00:11:42.554Z,51.15
2022-08-26T00:14:09.084Z,51.25
2022-08-26T00:16:35.894Z,51.32
2022-08-26T00:19:02.424Z,51.50
2022-08-26T00:21:28.924Z,51.57
2022-08-26T00:23:55.538Z,51.67
2022-08-26T00:26:22.402Z,51.81
2022-08-26T00:28:55.122Z,51.68
2022-08-26T00:31:21.698Z,51.87
2022-08-26T00:33:48.429Z,52.23
2022-08-26T00:36:20.305Z,52.29
2022-08-26T00:38:47.972Z,52.20
2022-08-26T00:41:14.751Z,52.22
2022-08-26T00:43:47.196Z,51.81
2022-08-26T00:46:19.690Z,51.97
2022-08-26T00:48:50.050Z,52.03
2022-08-26T00:51:23.588Z,52.04
2022-08-26T00:53:59.013Z,52.26
2022-08-26T00:56:35.837Z,52.43
2022-08-26T00:59:07.076Z,52.87
2022-08-26T01:01:33.704Z,52.70
2022-08-26T01:04:00.960Z,52.94
2022-08-26T01:06:28.510Z,52.87
2022-08-26T01:08:55.164Z,53.12
2022-08-26T01:11:22.281Z,53.31
2022-08-26T01:13:54.587Z,53.29
2022-08-26T01:16:22.326Z,53.59
2022-08-26T01:18:49.028Z,53.69
2022-08-26T01:21:18.951Z,53.62
2022-08-26T01:23:49.478Z,53.92
2022-08-26T01:26:20.350Z,53.88
2022-08-26T01:28:50.698Z,53.86
2022-08-26T01:31:23.846Z,54.21
2022-08-26T01:34:15.108Z,54.23
2022-08-26T01:36:42.124Z,54.73
2022-08-26T01:39:09.208Z,54.50
2022-08-26T01:41:38.638Z,54.66
2022-08-26T01:44:09.697Z,55.00
2022-08-26T01:46:37.013Z,54.98
2022-08-26T01:49:06.707Z,54.92
2022-08-26T01:51:37.238Z,55.14
2022-08-26T01:54:07.143Z,55.18
2022-08-26T01:56:39.299Z,54.83
2022-08-26T01:59:11.229Z,54.98
2022-08-26T02:01:38.988Z,54.65
2022-08-26T02:04:17.698Z,55.01
2022-08-26T02:06:45.102Z,54.93
2022-08-26T02:09:13.022Z,55.17
2022-08-26T02:11:41.708Z,55.16
2022-08-26T02:14:21.393Z,55.24
2022-08-26T02:16:50.688Z,55.28
2022-08-26T02:19:21.490Z,55.46
2022-08-26T02:21:52.064Z,55.75
2022-08-26T02:24:24.568Z,55.51
2022-08-26T02:26:54.773Z,55.92
2022-08-26T02:29:26.484Z,55.97
2022-08-26T02:31:55.724Z,55.80
2022-08-26T02:34:28.197Z,55.94
2022-08-26T02:37:01.201Z,55.85
2022-08-26T02:39:29.543Z,56.29
2022-08-26T02:41:57.592Z,56.23
2022-08-26T02:44:24.141Z,56.05
2022-08-26T02:46:54.177Z,56.62
2022-08-26T02:49:21.802Z,56.71
2022-08-26T02:51:49.446Z,56.33
2022-08-26T02:54:17.631Z,56.92
2022-08-26T02:56:45.281Z,56.96
2022-08-26T02:59:15.360Z,56.77
2022-08-26T03:01:42.623Z,56.64
2022-08-26T03:04:12.183Z,56.97
2022-08-26T03:06:39.216Z,56.91
2022-08-26T03:09:07.783Z,57.24
2022-08-26T03:11:35.628Z,57.21
2022-08-26T03:14:03.727Z,57.66
2022-08-26T03:16:37.459Z,57.59
2022-08-26T03:19:06.771Z,57.32
2022-08-26T03:21:35.419Z,57.44
2022-08-26T03:24:03.460Z,57.53
2022-08-26T03:26:30.521Z,57.23
2022-08-26T03:29:15.883Z,57.30
2022-08-26T03:31:43.473Z,57.39
2022-08-26T03:34:11.249Z,57.77
2022-08-26T03:36:38.664Z,57.71
2022-08-26T03:39:05.839Z,57.92
2022-08-26T03:41:34.848Z,57.72
2022-08-26T03:44:02.443Z,57.41
2022-08-26T03:46:33.141Z,57.80
2022-08-26T03:49:01.148Z,57.83
2022-08-26T03:51:28.771Z,58.20
2022-08-26T03:53:55.953Z,57.93
2022-08-26T03:56:23.618Z,58.37
2022-08-26T03:58:50.632Z,57.91
2022-08-26T04:01:17.573Z,58.20
2022-08-26T04:03:57.687Z,58.49
2022-08-26T04:06:39.321Z,58.37
2022-08-26T04:09:19.571Z,58.58
2022-08-26T04:11:50.700Z,58.23
2022-08-26T04:14:23.736Z,58.60
2022-08-26T04:16:51.339Z,58.87
2022-08-26T04:19:19.602Z,58.56
2022-08-26T04:21:48.120Z,58.32
2022-08-26T04:24:16.619Z,58.47
2022-08-26T04:26:44.288Z,58.17
2022-08-26T04:29:15.817Z,58.61
2022-08-26T04:31:42.510Z,58.56
2022-08-26T04:34:11.040Z,58.94
2022-08-26T04:36:37.881Z,58.90
2022-08-26T04:39:04.760Z,58.83
2022-08-26T04:41:31.519Z,58.73
2022-08-26T04:43:58.238Z,58.59
2022-08-26T04:46:25.765Z,58.64
2022-08-26T04:48:53.772Z,58.98
2022-08-26T04:51:23.696Z,59.13
2022-08-26T04:53:50.189Z,58.85
2022-08-26T04:56:16.755Z,59.29
2022-08-26T04:58:43.387Z,59.30
2022-08-26T05:01:10.411Z,58.93
2022-08-26T05:03:37.073Z,58.74
2022-08-26T05:06:05.379Z,58.97
2022-08-26T05:08:31.969Z,58.83
2022-08-26T05:10:58.761Z,58.92
2022-08-26T05:13:27.696Z,58.94
2022-08-26T05:15:54.729Z,58.54
2022-08-26T05:18:27.443Z,58.21
2022-08-26T05:20:54.890Z,58.19
2022-08-26T05:23:23.262Z,58.22
2022-08-26T05:25:58.386Z,58.04
2022-08-26T05:28:27.149Z,57.99
2022-08-26T05:30:54.883Z,58.27
2022-08-26T05:33:22.194Z,57.84
2022-08-26T05:35:49.009Z,57.56
2022-08-26T05:38:18.355Z,57.07
2022-08-26T05:40:49.120Z,57.23
2022-08-26T05:43:20.287Z,56.83
2022-08-26T05:45:49.722Z,57.30
2022-08-26T05:48:19.027Z,56.97
2022-08-26T05:50:52.179Z,57.02
2022-08-26T05:53:21.219Z,57.04
2022-08-26T05:55:50.275Z,56.87
2022-08-26T05:58:20.846Z,56.38
2022-08-26T06:00:58.599Z,56.33
2022-08-26T06:03:25.217Z,55.88
2022-08-26T06:05:51.711Z,55.77
2022-08-26T06:08:21.044Z,55.75
2022-08-26T06:10:59.205Z,55.40
2022-08-26T06:13:27.533Z,55.45
2022-08-26T06:15:59.778Z,55.42
2022-08-26T06:18:35.515Z,55.19
2022-08-26T06:21:14.111Z,54.62
2022-08-26T06:23:59.316Z,54.48
2022-08-26T06:26:28.203Z,54.33
2022-08-26T06:28:55.476Z,54.12
2022-08-26T06:31:23.740Z,54.21
2022-08-26T06:33:51.317Z,53.55
2022-08-26T06:36:20.798Z,53.72
2022-08-26T06:38:48.950Z,53.09
2022-08-26T06:41:17.984Z,52.77
2022-08-26T06:43:44.622Z,52.71
2022-08-26T06:46:13.706Z,52.14
2022-08-26T06:48:40.728Z,51.93
2022-08-26T06:51:11.530Z,51.74
2022-08-26T06:53:39.635Z,51.64
2022-08-26T06:56:10.721Z,51.41
2022-08-26T06:58:39.045Z,51.65
2022-08-26T07:01:29.352Z,51.60
2022-08-26T07:03:59.263Z,50.98
2022-08-26T07:06:28.223Z,50.98
2022-08-26T07:09:01.627Z,50.67
2022-08-26T07:11:30.856Z,50.50
2022-08-26T07:13:58.899Z,50.34
2022-08-26T07:16:28.320Z,50.02
2022-08-26T07:18:56.831Z,49.30
2022-08-26T07:21:24.558Z,49.24
2022-08-26T07:23:55.433Z,49.16
2022-08-26T07:26:27.325Z,49.02
2022-08-26T07:28:56.436Z,48.49
2022-08-26T07:31:25.517Z,48.40
2022-08-26T07:33:52.411Z,48.28
2022-08-26T07:36:20.407Z,47.82
2022-08-26T07:38:48.154Z,47.78
2022-08-26T07:41:17.477Z,47.32
2022-08-26T07:43:45.393Z,47.25
2022-08-26T07:46:18.375Z,46.79
2022-08-26T07:48:48.652Z,46.36
2022-08-26T07:51:17.153Z,46.62
2022-08-26T07:53:45.241Z,46.01
2022-08-26T07:56:15.065Z,46.10
2022-08-26T07:58:41.985Z,45.80
2022-08-26T08:01:09.237Z,45.90
2022-08-26T08:03:35.898Z,45.25
2022-08-26T08:06:02.447Z,45.31
2022-08-26T08:08:29.331Z,44.95
2022-08-26T08:10:56.967Z,44.54
2022-08-26T08:13:24.280Z,45.11
2022-08-26T08:15:51.108Z,44.38
2022-08-26T08:18:18.110Z,44.56
2022-08-26T08:20:59.223Z,43.84
2022-08-26T08:23:32.235Z,43.75
2022-08-26T08:26:08.213Z,43.20
2022-08-26T08:28:36.202Z,43.48
2022-08-26T08:31:03.399Z,43.40
2022-08-26T08:33:33.541Z,43.38
2022-08-26T08:36:00.240Z,42.95
2022-08-26T08:38:27.374Z,42.77
2022-08-26T08:40:54.005Z,42.51
2022-08-26T08:43:38.540Z,42.44
2022-08-26T08:46:12.254Z,42.38
2022-08-26T08:48:43.559Z,42.25
2022-08-26T08:51:27.606Z,42.29
2022-08-26T08:53:55.842Z,41.77
2022-08-26T08:56:52.989Z,41.73
2022-08-26T08:59:25.160Z,41.12
2022-08-26T09:02:20.694Z,41.22
2022-08-26T09:05:06.581Z,40.99
2022-08-26T09:07:40.233Z,40.53
2022-08-26T09:10:28.224Z,40.35
2022-08-26T09:12:54.862Z,40.24
2022-08-26T09:15:31.823Z,39.83
2022-08-26T09:18:17.118Z,39.75
2022-08-26T09:21:09.767Z,39.87
2022-08-26T09:23:39.223Z,39.89
2022-08-26T09:26:25.861Z,39.51
2022-08-26T09:29:03.100Z,39.42
2022-08-26T09:31:35.774Z,38.85
2022-08-26T09:34:07.248Z,38.56
2022-08-26T09:36:41.509Z,38.39
2022-08-26T09:39:29.058Z,38.24
2022-08-26T09:42:12.746Z,37.56
2022-08-26T09:45:03.531Z,37.76
2022-08-26T09:47:32.741Z,37.35
2022-08-26T09:50:09.691Z,37.09
2022-08-26T09:52:36.791Z,37.66
2022-08-26T09:55:14.344Z,37.17
2022-08-26T09:58:07.737Z,36.24
2022-08-26T10:00:39.289Z,36.09
2022-08-26T10:03:10.727Z,36.11
2022-08-26T10:05:54.612Z,35.29
2022-08-26T10:08:36.388Z,35.86
2022-08-26T10:11:11.084Z,35.72
2022-08-26T10:13:42.253Z,34.94
2022-08-26T10:16:17.846Z,34.79
2022-08-26T10:19:08.094Z,34.34
2022-08-26T10:21:38.921Z,34.25
2022-08-26T10:24:08.991Z,34.05
2022-08-26T10:26:57.497Z,33.77
2022-08-26T10:29:37.615Z,33.33
2022-08-26T10:32:14.056Z,32.99
2022-08-26T10:34:42.221Z,33.09
2022-08-26T10:37:20.375Z,32.66
2022-08-26T10:40:02.425Z,32.67
2022-08-26T10:42:51.312Z,32.55
2022-08-26T10:45:22.123Z,32.40
2022-08-26T10:48:05.202Z,32.26
2022-08-26T10:50:41.726Z,31.91
2022-08-26T10:53:16.995Z,32.08
2022-08-26T10:55:51.366Z,31.77
2022-08-26T10:58:46.318Z,31.94
2022-08-26T11:01:40.932Z,31.65
2022-08-26T11:04:13.304Z,32.20
2022-08-26T11:06:40.528Z,31.50
2022-08-26T11:09:08.986Z,31.67
2022-08-26T11:11:41.309Z,31.34
2022-08-26T11:14:08.937Z,31.86
2022-08-26T11:16:46.363Z,31.46
2022-08-26T11:19:59.312Z,30.78
2022-08-26T11:22:47.585Z,31.01
2022-08-26T11:25:30.037Z,31.31
2022-08-26T11:27:59.562Z,30.92
2022-08-26T11:30:40.047Z,31.36
2022-08-26T11:33:08.108Z,31.26
2022-08-26T11:35:34.781Z,31.62
2022-08-26T11:38:17.013Z,31.25
2022-08-26T11:40:45.219Z,31.72
2022-08-26T11:43:23.791Z,32.71
2022-08-26T11:46:06.531Z,32.87
2022-08-26T11:48:41.424Z,32.99
2022-08-26T11:51:11.674Z,32.98
2022-08-26T11:53:42.686Z,33.49
2022-08-26T11:56:12.548Z,33.15
2022-08-26T11:58:43.899Z,32.85
2022-08-26T12:01:27.743Z,32.92
2022-08-26T12:03:59.438Z,32.75
2022-08-26T12:06:36.421Z,32.52
2022-08-26T12:09:13.760Z,32.08
2022-08-26T12:11:41.707Z,32.25
2022-08-26T12:14:20.694Z,32.38
2022-08-26T12:16:47.941Z,31.83
2022-08-26T12:19:32.583Z,31.88
2022-08-26T12:22:17.902Z,31.69
2022-08-26T12:24:56.978Z,31.50
2022-08-26T12:27:40.198Z,31.15
2022-08-26T12:30:08.630Z,31.01
2022-08-26T12:32:39.020Z,31.25
2022-08-26T12:35:24.333Z,30.78
2022-08-26T12:37:53.908Z,30.81
2022-08-26T12:40:35.963Z,30.96
2022-08-26T12:43:07.048Z,30.85
2022-08-26T12:46:00.460Z,30.81
2022-08-26T12:48:31.861Z,30.53
2022-08-26T12:51:00.227Z,30.90
2022-08-26T12:53:32.105Z,31.11
2022-08-26T12:56:02.401Z,31.16
2022-08-26T12:58:37.906Z,31.21
2022-08-26T13:01:04.466Z,31.02
2022-08-26T13:03:45.600Z,31.55
2022-08-26T13:06:40.300Z,31.44
2022-08-26T13:09:09.765Z,31.64
2022-08-26T13:11:39.335Z,31.58
2022-08-26T13:14:18.351Z,31.74
2022-08-26T13:16:51.738Z,32.63
2022-08-26T13:19:21.272Z,33.56
2022-08-26T13:21:52.837Z,34.49
2022-08-26T13:24:28.503Z,34.65
2022-08-26T13:26:55.057Z,35.11
2022-08-26T13:29:21.931Z,36.61
2022-08-26T13:31:49.123Z,37.85
2022-08-26T13:34:19.457Z,39.21
2022-08-26T13:36:50.932Z,40.72
2022-08-26T13:39:18.221Z,43.54
2022-08-26T13:41:44.821Z,45.47
2022-08-26T13:44:12.022Z,49.97
2022-08-26T13:46:38.683Z,55.84
2022-08-26T13:49:05.485Z,60.28
2022-08-26T13:51:33.295Z,63.78
2022-08-26T13:54:00.269Z,64.17
2022-08-26T13:56:29.644Z,64.72
2022-08-26T13:58:57.321Z,64.23
2022-08-26T14:01:24.526Z,64.57
2022-08-26T14:03:51.455Z,64.13
2022-08-26T14:06:18.078Z,63.08
2022-08-26T14:08:45.309Z,61.78
2022-08-26T14:11:11.999Z,61.32
2022-08-26T14:13:39.217Z,61.09
2022-08-26T14:16:10.698Z,61.09
2022-08-26T14:18:44.399Z,61.28
2022-08-26T14:21:14.428Z,61.18
2022-08-26T14:23:41.554Z,61.10
2022-08-26T14:26:10.827Z,61.40
2022-08-26T14:28:41.730Z,61.24
2022-08-26T14:31:08.752Z,61.01
2022-08-26T14:33:38.123Z,61.29
2022-08-26T14:36:26.866Z,61.05
2022-08-26T14:38:54.157Z,61.32
2022-08-26T14:41:22.105Z,61.22
2022-08-26T14:43:57.920Z,61.47
2022-08-26T14:46:28.708Z,61.37
2022-08-26T14:49:02.047Z,61.21
2022-08-26T14:51:29.773Z,61.31
2022-08-26T14:54:14.706Z,61.05
2022-08-26T14:56:46.221Z,61.51
2022-08-26T14:59:15.697Z,61.63
2022-08-26T15:01:42.396Z,61.94
2022-08-26T15:04:09.191Z,62.04
2022-08-26T15:06:36.098Z,61.77
2022-08-26T15:09:04.122Z,61.59
2022-08-26T15:11:30.860Z,61.59
2022-08-26T15:13:57.443Z,61.71
2022-08-26T15:16:24.129Z,62.08
2022-08-26T15:18:51.604Z,62.14
2022-08-26T15:21:19.377Z,62.21
2022-08-26T15:23:47.634Z,62.30
2022-08-26T15:26:16.403Z,62.21
2022-08-26T15:28:43.414Z,62.45
2022-08-26T15:31:10.596Z,62.63
2022-08-26T15:33:38.124Z,62.84
2022-08-26T15:36:06.490Z,62.35
2022-08-26T15:38:36.081Z,62.66
2022-08-26T15:41:04.422Z,62.51
2022-08-26T15:43:31.382Z,62.98
2022-08-26T15:45:58.761Z,62.72
2022-08-26T15:48:25.463Z,62.80
2022-08-26T15:51:00.183Z,63.18
2022-08-26T15:53:29.426Z,63.64
2022-08-26T15:55:57.988Z,63.38
2022-08-26T15:58:27.053Z,63.38
2022-08-26T16:00:55.358Z,63.42
2022-08-26T16:03:22.543Z,63.22
2022-08-26T16:05:49.213Z,63.35
2022-08-26T16:08:15.928Z,63.24
2022-08-26T16:10:49.759Z,63.44
2022-08-26T16:13:17.988Z,63.40
2022-08-26T16:15:44.635Z,63.50
2022-08-26T16:18:11.347Z,63.27
2022-08-26T16:21:06.540Z,63.46
2022-08-26T16:23:33.417Z,63.63
2022-08-26T16:25:59.924Z,63.81
2022-08-26T16:28:26.569Z,63.31
2022-08-26T16:30:53.114Z,63.64
2022-08-26T16:33:21.542Z,63.97
2022-08-26T16:35:55.880Z,63.77
2022-08-26T16:38:22.433Z,63.96
2022-08-26T16:40:49.810Z,64.34
2022-08-26T16:43:16.301Z,64.38
2022-08-26T16:45:42.837Z,64.62
2022-08-26T16:48:09.863Z,64.65
2022-08-26T16:50:38.454Z,64.59
2022-08-26T16:53:05.069Z,64.56
2022-08-26T16:55:31.901Z,64.78
2022-08-26T16:57:58.593Z,64.68
2022-08-26T17:00:28.258Z,64.95
2022-08-26T17:02:56.092Z,65.21
2022-08-26T17:05:24.945Z,64.82
2022-08-26T17:07:52.856Z,65.23
2022-08-26T17:10:20.233Z,65.10
2022-08-26T17:12:47.246Z,65.17
2022-08-26T17:15:14.667Z,64.96
2022-08-26T17:17:41.701Z,65.50
2022-08-26T17:20:11.957Z,65.63
2022-08-26T17:22:40.053Z,65.49
2022-08-26T17:25:13.372Z,65.85
2022-08-26T17:27:40.841Z,65.74
2022-08-26T17:30:08.045Z,66.07
2022-08-26T17:32:35.089Z,66.15
2022-08-26T17:35:02.165Z,66.31
2022-08-26T17:37:28.774Z,66.41
2022-08-26T17:39:55.307Z,66.63
2022-08-26T17:42:21.977Z,67.03
2022-08-26T17:44:58.298Z,67.44
2022-08-26T17:47:24.995Z,67.26
2022-08-26T17:49:51.595Z,67.67
2022-08-26T17:52:18.171Z,67.72
2022-08-26T17:54:44.859Z,67.82
2022-08-26T17:57:11.389Z,67.82
2022-08-26T17:59:38.861Z,68.00
2022-08-26T18:02:07.630Z,68.28
2022-08-26T18:04:34.325Z,68.09
2022-08-26T18:07:01.370Z,67.80
2022-08-26T18:09:31.195Z,68.03
2022-08-26T18:11:58.491Z,68.30
2022-08-26T18:14:25.236Z,68.13
2022-08-26T18:16:51.876Z,68.58
2022-08-26T18:19:18.564Z,68.99
2022-08-26T18:21:45.090Z,68.65
2022-08-26T18:24:13.946Z,68.63
2022-08-26T18:26:47.928Z,69.09
2022-08-26T18:29:15.607Z,69.07
2022-08-26T18:31:42.753Z,69.16
2022-08-26T18:34:12.880Z,68.99
2022-08-26T18:36:40.304Z,69.11
2022-08-26T18:39:08.394Z,69.06
2022-08-26T18:41:42.521Z,69.04
2022-08-26T18:44:13.505Z,69.00
2022-08-26T18:46:41.124Z,69.11
2022-08-26T18:49:08.371Z,69.29
2022-08-26T18:51:35.118Z,69.02
2022-08-26T18:54:05.480Z,69.42
2022-08-26T18:56:33.866Z,69.63
2022-08-26T18:59:01.062Z,69.62
2022-08-26T19:01:30.117Z,69.63
2022-08-26T19:03:58.702Z,69.74
2022-08-26T19:06:26.669Z,69.96
2022-08-26T19:08:53.687Z,70.08
2022-08-26T19:11:31.129Z,69.50
2022-08-26T19:13:58.459Z,69.72
2022-08-26T19:16:26.907Z,69.72
2022-08-26T19:18:54.306Z,69.75
2022-08-26T19:21:22.745Z,69.42
2022-08-26T19:23:50.530Z,69.69
2022-08-26T19:26:17.185Z,69.57
2022-08-26T19:28:43.716Z,69.72
2022-08-26T19:31:11.970Z,69.93
2022-08-26T19:33:40.421Z,69.83
2022-08-26T19:36:10.402Z,70.09
2022-08-26T19:38:39.533Z,70.31
2022-08-26T19:41:06.474Z,70.08
2022-08-26T19:43:33.118Z,70.03
2022-08-26T19:45:59.648Z,70.33
2022-08-26T19:48:26.334Z,70.38
2022-08-26T19:50:52.893Z,70.48
2022-08-26T19:53:19.733Z,70.17
2022-08-26T19:55:46.196Z,70.25
2022-08-26T19:58:12.662Z,69.98
2022-08-26T20:00:42.101Z,70.00
2022-08-26T20:03:10.711Z,70.02
2022-08-26T20:05:42.654Z,70.19
2022-08-26T20:08:09.690Z,70.24
2022-08-26T20:10:49.663Z,69.98
2022-08-26T20:13:16.215Z,69.96
2022-08-26T20:15:43.125Z,70.05
2022-08-26T20:18:29.713Z,70.07
2022-08-26T20:21:16.208Z,70.27
2022-08-26T20:23:44.356Z,70.33
2022-08-26T20:26:10.851Z,70.13
2022-08-26T20:28:37.468Z,70.59
2022-08-26T20:31:04.099Z,70.32
2022-08-26T20:33:31.687Z,70.48
2022-08-26T20:36:13.043Z,70.77
2022-08-26T20:38:39.621Z,70.73
2022-08-26T20:41:06.195Z,70.69
2022-08-26T20:43:32.717Z,71.00
2022-08-26T20:46:00.541Z,70.81
2022-08-26T20:48:27.104Z,70.95
2022-08-26T20:50:58.405Z,71.25
2022-08-26T20:53:26.584Z,70.72
2022-08-26T20:55:54.887Z,71.05
2022-08-26T20:58:23.671Z,71.21
2022-08-26T21:00:50.663Z,71.12
2022-08-26T21:03:17.190Z,71.36
2022-08-26T21:05:43.700Z,71.13
2022-08-26T21:08:10.323Z,71.47
2022-08-26T21:10:39.301Z,71.38
2022-08-26T21:13:06.000Z,71.29
2022-08-26T21:15:32.618Z,71.57
2022-08-26T21:18:00.476Z,71.77
2022-08-26T21:20:27.036Z,71.67
2022-08-26T21:22:53.547Z,71.26
2022-08-26T21:25:20.488Z,71.77
2022-08-26T21:27:47.108Z,71.66
2022-08-26T21:30:15.581Z,71.46
2022-08-26T21:32:42.415Z,71.80
2022-08-26T21:35:09.633Z,71.45
2022-08-26T21:37:36.138Z,71.88
2022-08-26T21:40:05.000Z,71.96
2022-08-26T21:42:33.900Z,71.85
2022-08-26T21:45:01.466Z,71.80
2022-08-26T21:47:28.024Z,71.88
2022-08-26T21:49:54.647Z,71.73
2022-08-26T21:52:21.405Z,71.76
2022-08-26T21:54:49.424Z,71.07
2022-08-26T21:57:17.085Z,71.78
2022-08-26T21:59:43.595Z,72.00
2022-08-26T22:02:10.939Z,71.88
2022-08-26T22:04:37.620Z,71.81
2022-08-26T22:07:04.294Z,71.73
2022-08-26T22:09:31.588Z,72.16
2022-08-26T22:11:59.121Z,72.24
2022-08-26T22:14:30.400Z,72.31
2022-08-26T22:16:59.466Z,72.24
2022-08-26T22:19:26.223Z,72.32
2022-08-26T22:21:54.536Z,72.47
2022-08-26T22:24:23.796Z,72.31
2022-08-26T22:26:51.087Z,72.24
2022-08-26T22:29:18.820Z,72.57
2022-08-26T22:31:46.089Z,72.49
2022-08-26T22:34:17.011Z,72.51
2022-08-26T22:36:46.513Z,72.54
2022-08-26T22:39:16.021Z,72.64
2022-08-26T22:41:44.178Z,72.55
2022-08-26T22:44:11.900Z,72.76
2022-08-26T22:46:38.899Z,72.73
2022-08-26T22:49:06.446Z,72.79
2022-08-26T22:51:33.293Z,73.15
2022-08-26T22:54:00.814Z,73.20
2022-08-26T22:56:27.453Z,73.13
2022-08-26T22:58:53.989Z,73.19
2022-08-26T23:01:20.688Z,73.23
2022-08-26T23:03:47.437Z,73.25
2022-08-26T23:06:14.293Z,73.17
2022-08-26T23:08:41.952Z,73.04
2022-08-26T23:11:10.955Z,73.11
2022-08-26T23:13:40.654Z,73.06
2022-08-26T23:16:11.209Z,73.31
2022-08-26T23:18:39.365Z,73.36
2022-08-26T23:21:06.768Z,73.48
2022-08-26T23:23:33.335Z,73.68
2022-08-26T23:26:02.334Z,73.66
2022-08-26T23:28:32.196Z,73.68
2022-08-26T23:30:58.888Z,73.38
2022-08-26T23:33:45.485Z,73.63
2022-08-26T23:36:17.043Z,73.76
2022-08-26T23:38:44.526Z,73.48
2022-08-26T23:41:18.889Z,73.34
2022-08-26T23:43:45.402Z,73.17
2022-08-26T23:46:12.117Z,73.30
2022-08-26T23:48:38.813Z,73.05
2022-08-26T23:51:24.503Z,73.32
2022-08-26T23:53:51.743Z,73.29
2022-08-26T23:56:18.705Z,73.18
2022-08-26T23:58:47.036Z,73.25
